Terminal Aerodrome Forecast
Issued by NWS El Paso, TX

Home | Current Version | Previous Version | Text Only | Print | Product List | Glossary On
Versions: 1 2 3 4 5 6 7 8 9 10 11 12
000
FTUS44 KEPZ 311100 RRA
TAFELP
TAF
KELP 311145Z 3112/0112 VRB04KT 6SM -RA BKN015 OVC050
     FM311500 15006KT P6SM VCSH SCT015 BKN060
     FM312100 18007KT 6SM -SHRA BKN025 OVC060
     FM010400 24008KT P6SM SCT025 BKN060=

USA.gov is the U.S. government's official web portal to all federal, state and local government web resources and services.